COOK73 RJOC-UHPP
Flight info
| Callsign | COOK73 |
|---|---|
| Flight time | N/A |
| Altitude | 35000 |
| Route | SAIGO SUGNO Y14 SAMON Z17 MRE V13 TIKYU Y13 SIRAO V13 CHE Y116 AWE V8 LUBEK Y116 MVE G583 BISIV/K0811F350 G583 UB T577 SAMIK SAMIK5N |
| Aircraft | C25C/M-SDE2E3FGHRWXY/LB1 |
Departure
| Time | 2026-04-16 18:23 |
|---|---|
| Airport | Izumo Enmusubi Airport (RJOC) |
Arrival
| Time | N/A |
|---|---|
| Airport | Yelizovo Airport (UHPP) |
| Time | Latitude | Longitude | Altitude | Speed | Heading |
|---|---|---|---|---|---|
| 2026-04-16 18:05 | 35.41394 | 132.88723 | 13 ft | 0 kts | 331° |
| 2026-04-16 18:17 | 35.41387 | 132.88733 | 13 ft | 2 kts | 275° |
| 2026-04-16 18:17 | 35.41392 | 132.88744 | 13 ft | 2 kts | 201° |
| 2026-04-16 18:17 | 35.41397 | 132.88749 | 13 ft | 0 kts | 239° |
| 2026-04-16 18:19 | 35.41395 | 132.88745 | 13 ft | 0 kts | 239° |
| 2026-04-16 18:19 | 35.41389 | 132.88732 | 13 ft | 4 kts | 239° |
| 2026-04-16 18:19 | 35.41372 | 132.88700 | 12 ft | 5 kts | 244° |
| 2026-04-16 18:19 | 35.41354 | 132.88659 | 12 ft | 6 kts | 221° |
| 2026-04-16 18:20 | 35.41316 | 132.88660 | 12 ft | 6 kts | 151° |
| 2026-04-16 18:20 | 35.41272 | 132.88690 | 12 ft | 9 kts | 153° |
| 2026-04-16 18:20 | 35.41217 | 132.88670 | 11 ft | 9 kts | 230° |
| 2026-04-16 18:20 | 35.41180 | 132.88598 | 12 ft | 11 kts | 239° |
| 2026-04-16 18:21 | 35.41132 | 132.88502 | 13 ft | 14 kts | 239° |
| 2026-04-16 18:21 | 35.41080 | 132.88393 | 12 ft | 16 kts | 239° |
| 2026-04-16 18:21 | 35.41022 | 132.88276 | 13 ft | 16 kts | 239° |
| 2026-04-16 18:21 | 35.40971 | 132.88173 | 12 ft | 10 kts | 230° |
| 2026-04-16 18:22 | 35.40912 | 132.88124 | 10 ft | 11 kts | 229° |
| 2026-04-16 18:22 | 35.40906 | 132.88068 | 10 ft | 6 kts | 350° |
| 2026-04-16 18:22 | 35.40932 | 132.88091 | 10 ft | 2 kts | 56° |
| 2026-04-16 18:23 | 35.40997 | 132.88221 | 12 ft | 51 kts | 59° |
| 2026-04-16 18:23 | 35.41315 | 132.88870 | 12 ft | 123 kts | 58° |
| 2026-04-16 18:23 | 35.41884 | 132.89867 | 248 ft | 162 kts | 58° |
| 2026-04-16 18:23 | 35.42544 | 132.91167 | 656 ft | 194 kts | 59° |
| 2026-04-16 18:24 | 35.43279 | 132.92589 | 1562 ft | 197 kts | 60° |
| 2026-04-16 18:24 | 35.44020 | 132.94018 | 2352 ft | 206 kts | 61° |
| 2026-04-16 18:24 | 35.44816 | 132.95532 | 3073 ft | 215 kts | 61° |
| 2026-04-16 18:24 | 35.45645 | 132.97091 | 3833 ft | 221 kts | 62° |
| 2026-04-16 18:25 | 35.46489 | 132.98680 | 4642 ft | 223 kts | 60° |
| 2026-04-16 18:25 | 35.47338 | 133.00292 | 5410 ft | 227 kts | 60° |
| 2026-04-16 18:25 | 35.48203 | 133.01925 | 6184 ft | 229 kts | 60° |
| 2026-04-16 18:25 | 35.49074 | 133.03577 | 6924 ft | 232 kts | 60° |
| 2026-04-16 18:26 | 35.49957 | 133.05251 | 7651 ft | 235 kts | 60° |
| 2026-04-16 18:26 | 35.50852 | 133.06943 | 8367 ft | 238 kts | 60° |
| 2026-04-16 18:26 | 35.51819 | 133.08606 | 9081 ft | 244 kts | 44° |
| 2026-04-16 18:26 | 35.53390 | 133.09366 | 9815 ft | 250 kts | 2° |
| 2026-04-16 18:27 | 35.55025 | 133.08767 | 10457 ft | 248 kts | 321° |
| 2026-04-16 18:27 | 35.56012 | 133.07100 | 11092 ft | 242 kts | 285° |
| 2026-04-16 18:27 | 35.56201 | 133.05094 | 11712 ft | 236 kts | 259° |
| 2026-04-16 18:27 | 35.56422 | 133.03092 | 12329 ft | 249 kts | 295° |
| 2026-04-16 18:28 | 35.57661 | 133.01607 | 12936 ft | 260 kts | 326° |
| 2026-04-16 18:28 | 35.59390 | 133.00930 | 13547 ft | 267 kts | 356° |
| 2026-04-16 18:28 | 35.61201 | 133.01344 | 14135 ft | 268 kts | 27° |
| 2026-04-16 18:28 | 35.62636 | 133.02769 | 14668 ft | 267 kts | 52° |
| 2026-04-16 18:29 | 35.63783 | 133.04585 | 15192 ft | 270 kts | 55° |
| 2026-04-16 18:29 | 35.64931 | 133.06431 | 15707 ft | 274 kts | 53° |
| 2026-04-16 18:29 | 35.66140 | 133.08262 | 16231 ft | 277 kts | 52° |
| 2026-04-16 18:29 | 35.67375 | 133.10105 | 16739 ft | 281 kts | 51° |
| 2026-04-16 18:30 | 35.68614 | 133.11978 | 17251 ft | 284 kts | 51° |
| 2026-04-16 18:30 | 35.69864 | 133.13878 | 17763 ft | 287 kts | 51° |
| 2026-04-16 18:30 | 35.71125 | 133.15799 | 18266 ft | 291 kts | 51° |
| 2026-04-16 18:30 | 35.72406 | 133.17741 | 18735 ft | 293 kts | 50° |
| 2026-04-16 18:31 | 35.73698 | 133.19698 | 19199 ft | 295 kts | 49° |
| 2026-04-16 18:31 | 35.75222 | 133.21372 | 19658 ft | 295 kts | 32° |
| 2026-04-16 18:31 | 35.76940 | 133.22776 | 20128 ft | 297 kts | 30° |
| 2026-04-16 18:31 | 35.78676 | 133.24168 | 20608 ft | 299 kts | 31° |
| 2026-04-16 18:32 | 35.80413 | 133.25602 | 21071 ft | 302 kts | 31° |
| 2026-04-16 18:32 | 35.82154 | 133.27057 | 21548 ft | 304 kts | 31° |
| 2026-04-16 18:32 | 35.83915 | 133.28516 | 22018 ft | 306 kts | 30° |
| 2026-04-16 18:32 | 35.85688 | 133.29983 | 22484 ft | 308 kts | 30° |
| 2026-04-16 18:33 | 35.87472 | 133.31459 | 22959 ft | 310 kts | 30° |
| 2026-04-16 18:33 | 35.89250 | 133.32933 | 23409 ft | 313 kts | 30° |
| 2026-04-16 18:33 | 35.91064 | 133.34442 | 23853 ft | 315 kts | 30° |
| 2026-04-16 18:33 | 35.92888 | 133.35955 | 24230 ft | 317 kts | 29° |
| 2026-04-16 18:34 | 35.94728 | 133.37482 | 24603 ft | 320 kts | 29° |
| 2026-04-16 18:34 | 35.96581 | 133.39027 | 24980 ft | 323 kts | 30° |
| 2026-04-16 18:34 | 35.97727 | 133.40219 | 25224 ft | 331 kts | 46° |
| 2026-04-16 18:34 | 35.98893 | 133.42692 | 25593 ft | 339 kts | 70° |
| 2026-04-16 18:35 | 35.99198 | 133.45573 | 25949 ft | 341 kts | 93° |
| 2026-04-16 18:35 | 35.99064 | 133.48507 | 26288 ft | 344 kts | 97° |
| 2026-04-16 18:35 | 35.98831 | 133.51456 | 26628 ft | 347 kts | 97° |
| 2026-04-16 18:35 | 35.98622 | 133.54438 | 26964 ft | 350 kts | 96° |
| 2026-04-16 18:36 | 35.98453 | 133.57451 | 27292 ft | 353 kts | 96° |
| 2026-04-16 18:36 | 35.98278 | 133.60490 | 27621 ft | 356 kts | 96° |
| 2026-04-16 18:36 | 35.98087 | 133.63549 | 27945 ft | 359 kts | 96° |
| 2026-04-16 18:36 | 35.97888 | 133.66628 | 28313 ft | 360 kts | 96° |
| 2026-04-16 18:37 | 35.97697 | 133.69711 | 28701 ft | 361 kts | 96° |
| 2026-04-16 18:37 | 35.97506 | 133.72803 | 29080 ft | 362 kts | 96° |
| 2026-04-16 18:37 | 35.97310 | 133.75906 | 29464 ft | 363 kts | 96° |
| 2026-04-16 18:37 | 35.97114 | 133.79014 | 29843 ft | 364 kts | 96° |
| 2026-04-16 18:38 | 35.96918 | 133.82085 | 30212 ft | 365 kts | 96° |
| 2026-04-16 18:38 | 35.96716 | 133.85253 | 30515 ft | 366 kts | 96° |
| 2026-04-16 18:38 | 35.96525 | 133.88353 | 30804 ft | 367 kts | 94° |
| 2026-04-16 18:38 | 35.96625 | 133.91509 | 31098 ft | 369 kts | 82° |
| 2026-04-16 18:39 | 35.97145 | 133.94604 | 31397 ft | 368 kts | 70° |
| 2026-04-16 18:39 | 35.98063 | 133.97537 | 31703 ft | 364 kts | 58° |
| 2026-04-16 18:39 | 35.99319 | 134.00227 | 32017 ft | 360 kts | 51° |
| 2026-04-16 18:39 | 36.00646 | 134.02860 | 32340 ft | 361 kts | 51° |
| 2026-04-16 18:40 | 36.01964 | 134.05497 | 32679 ft | 361 kts | 51° |
| 2026-04-16 18:40 | 36.03282 | 134.08133 | 33002 ft | 361 kts | 51° |
| 2026-04-16 18:40 | 36.04600 | 134.10765 | 33324 ft | 360 kts | 50° |
| 2026-04-16 18:40 | 36.05921 | 134.13400 | 33651 ft | 360 kts | 50° |
| 2026-04-16 18:41 | 36.07236 | 134.16030 | 33967 ft | 360 kts | 50° |
| 2026-04-16 18:41 | 36.08551 | 134.18666 | 34262 ft | 360 kts | 49° |
| 2026-04-16 18:41 | 36.09869 | 134.21303 | 34505 ft | 361 kts | 49° |
| 2026-04-16 18:41 | 36.11187 | 134.23947 | 34741 ft | 362 kts | 49° |
| 2026-04-16 18:42 | 36.12508 | 134.26598 | 34985 ft | 362 kts | 49° |
| 2026-04-16 18:42 | 36.13840 | 134.29267 | 35082 ft | 369 kts | 49° |
| 2026-04-16 18:42 | 36.16573 | 134.34754 | 35152 ft | 385 kts | 50° |
| 2026-04-16 18:43 | 36.19435 | 134.40523 | 35154 ft | 401 kts | 50° |
| 2026-04-16 18:43 | 36.22409 | 134.46519 | 35159 ft | 416 kts | 50° |
| 2026-04-16 18:44 | 36.25847 | 134.52280 | 35163 ft | 414 kts | 36° |
| 2026-04-16 18:44 | 36.29952 | 134.57407 | 35159 ft | 424 kts | 36° |
| 2026-04-16 18:45 | 36.34133 | 134.62672 | 35164 ft | 432 kts | 36° |
| 2026-04-16 18:45 | 36.38365 | 134.67985 | 35157 ft | 439 kts | 36° |
| 2026-04-16 18:46 | 36.42686 | 134.73430 | 35168 ft | 446 kts | 36° |
| 2026-04-16 18:46 | 36.47084 | 134.78977 | 35164 ft | 454 kts | 37° |
| 2026-04-16 18:47 | 36.51543 | 134.84613 | 35169 ft | 460 kts | 37° |
| 2026-04-16 18:47 | 36.56050 | 134.90317 | 35173 ft | 464 kts | 37° |
| 2026-04-16 18:48 | 36.60589 | 134.96073 | 35164 ft | 467 kts | 37° |
| 2026-04-16 18:48 | 36.65153 | 135.01873 | 35169 ft | 470 kts | 37° |
| 2026-04-16 18:49 | 36.69712 | 135.07677 | 35166 ft | 472 kts | 37° |
| 2026-04-16 18:49 | 36.74309 | 135.13539 | 35167 ft | 473 kts | 37° |
| 2026-04-16 18:50 | 36.78909 | 135.19414 | 35171 ft | 474 kts | 37° |
| 2026-04-16 18:50 | 36.83519 | 135.25312 | 35172 ft | 475 kts | 37° |
| 2026-04-16 18:51 | 36.88132 | 135.31225 | 35175 ft | 475 kts | 37° |
| 2026-04-16 18:51 | 36.92746 | 135.37152 | 35175 ft | 476 kts | 38° |
| 2026-04-16 18:52 | 36.97330 | 135.43051 | 35178 ft | 476 kts | 38° |
| 2026-04-16 18:52 | 37.01944 | 135.49001 | 35177 ft | 476 kts | 38° |
| 2026-04-16 18:53 | 37.06553 | 135.54954 | 35179 ft | 476 kts | 38° |
| 2026-04-16 18:53 | 37.11167 | 135.60924 | 35177 ft | 476 kts | 38° |
| 2026-04-16 18:54 | 37.15779 | 135.66901 | 35176 ft | 476 kts | 38° |
| 2026-04-16 18:54 | 37.20381 | 135.72878 | 35179 ft | 476 kts | 38° |
| 2026-04-16 18:55 | 37.24979 | 135.78861 | 35179 ft | 476 kts | 38° |
| 2026-04-16 18:55 | 37.29548 | 135.84818 | 35180 ft | 476 kts | 38° |
| 2026-04-16 18:56 | 37.34138 | 135.90815 | 35181 ft | 476 kts | 38° |
| 2026-04-16 18:56 | 37.38725 | 135.96818 | 35184 ft | 476 kts | 38° |
| 2026-04-16 18:57 | 37.43309 | 136.02827 | 35187 ft | 476 kts | 38° |
| 2026-04-16 18:58 | 37.50178 | 136.11855 | 35184 ft | 476 kts | 38° |
| 2026-04-16 18:58 | 37.54751 | 136.17897 | 35187 ft | 476 kts | 38° |
| 2026-04-16 18:59 | 37.59327 | 136.23946 | 35186 ft | 476 kts | 38° |
| 2026-04-16 18:59 | 37.63901 | 136.30006 | 35186 ft | 477 kts | 38° |
| 2026-04-16 19:00 | 37.68474 | 136.36076 | 35183 ft | 477 kts | 38° |
| 2026-04-16 19:00 | 37.73012 | 136.42113 | 35189 ft | 477 kts | 38° |
| 2026-04-16 19:01 | 37.77580 | 136.48203 | 35187 ft | 478 kts | 38° |
| 2026-04-16 19:01 | 37.82153 | 136.54310 | 35187 ft | 478 kts | 38° |
| 2026-04-16 19:02 | 37.86719 | 136.60420 | 35186 ft | 478 kts | 38° |
| 2026-04-16 19:02 | 37.91287 | 136.66541 | 35189 ft | 478 kts | 38° |
| 2026-04-16 19:03 | 37.95846 | 136.72663 | 35187 ft | 478 kts | 38° |
| 2026-04-16 19:03 | 38.00403 | 136.78795 | 35185 ft | 478 kts | 38° |
| 2026-04-16 19:04 | 38.04956 | 136.84935 | 35184 ft | 477 kts | 38° |
| 2026-04-16 19:04 | 38.09497 | 136.91071 | 35182 ft | 477 kts | 38° |
| 2026-04-16 19:05 | 38.14034 | 136.97212 | 35182 ft | 476 kts | 38° |
| 2026-04-16 19:05 | 38.18534 | 137.03315 | 35184 ft | 476 kts | 38° |
| 2026-04-16 19:06 | 38.23062 | 137.09466 | 35187 ft | 476 kts | 38° |
| 2026-04-16 19:06 | 38.27578 | 137.15614 | 35179 ft | 475 kts | 38° |
| 2026-04-16 19:07 | 38.32086 | 137.21763 | 35186 ft | 475 kts | 38° |
| 2026-04-16 19:07 | 38.36585 | 137.27913 | 35185 ft | 474 kts | 38° |
| 2026-04-16 19:08 | 38.41078 | 137.34068 | 35187 ft | 474 kts | 38° |
| 2026-04-16 19:08 | 38.45563 | 137.40223 | 35186 ft | 473 kts | 38° |
| 2026-04-16 19:09 | 38.50008 | 137.46334 | 35185 ft | 472 kts | 38° |
| 2026-04-16 19:09 | 38.54475 | 137.52485 | 35190 ft | 472 kts | 38° |
| 2026-04-16 19:10 | 38.58937 | 137.58643 | 35190 ft | 471 kts | 38° |
| 2026-04-16 19:10 | 38.63386 | 137.64796 | 35190 ft | 470 kts | 38° |
| 2026-04-16 19:11 | 38.67828 | 137.70952 | 35190 ft | 470 kts | 38° |
| 2026-04-16 19:11 | 38.72255 | 137.77099 | 35191 ft | 469 kts | 38° |
| 2026-04-16 19:12 | 38.76641 | 137.83203 | 35190 ft | 468 kts | 38° |
| 2026-04-16 19:12 | 38.81049 | 137.89346 | 35192 ft | 467 kts | 38° |
| 2026-04-16 19:13 | 38.85446 | 137.95487 | 35194 ft | 466 kts | 38° |
| 2026-04-16 19:13 | 38.89835 | 138.01626 | 35196 ft | 466 kts | 38° |
| 2026-04-16 19:14 | 38.94209 | 138.07756 | 35198 ft | 465 kts | 38° |
| 2026-04-16 19:14 | 38.98571 | 138.13876 | 35198 ft | 464 kts | 38° |
| 2026-04-16 19:15 | 39.02895 | 138.19959 | 35201 ft | 463 kts | 38° |
| 2026-04-16 19:15 | 39.07237 | 138.26077 | 35201 ft | 463 kts | 38° |
| 2026-04-16 19:16 | 39.11568 | 138.32193 | 35201 ft | 462 kts | 38° |
| 2026-04-16 19:16 | 39.15889 | 138.38305 | 35201 ft | 461 kts | 38° |
| 2026-04-16 19:17 | 39.20200 | 138.44414 | 35203 ft | 460 kts | 38° |
| 2026-04-16 19:17 | 39.24503 | 138.50523 | 35205 ft | 459 kts | 38° |
| 2026-04-16 19:18 | 39.28794 | 138.56629 | 35205 ft | 458 kts | 38° |
| 2026-04-16 19:18 | 39.33072 | 138.62728 | 35206 ft | 458 kts | 38° |
| 2026-04-16 19:19 | 39.37337 | 138.68822 | 35206 ft | 457 kts | 38° |
| 2026-04-16 19:19 | 39.41595 | 138.74917 | 35206 ft | 456 kts | 38° |
| 2026-04-16 19:20 | 39.45813 | 138.80966 | 35208 ft | 455 kts | 38° |
| 2026-04-16 19:20 | 39.50046 | 138.87047 | 35210 ft | 454 kts | 38° |
| 2026-04-16 19:21 | 39.54266 | 138.93122 | 35208 ft | 453 kts | 38° |
| 2026-04-16 19:21 | 39.58478 | 138.99198 | 35208 ft | 452 kts | 38° |
| 2026-04-16 19:22 | 39.62680 | 139.05274 | 35209 ft | 452 kts | 38° |
| 2026-04-16 19:22 | 39.66872 | 139.11346 | 35211 ft | 451 kts | 38° |
| 2026-04-16 19:23 | 39.71049 | 139.17408 | 35208 ft | 450 kts | 38° |
| 2026-04-16 19:23 | 39.75191 | 139.23430 | 35213 ft | 449 kts | 38° |
| 2026-04-16 19:24 | 39.79348 | 139.29485 | 35213 ft | 449 kts | 38° |
| 2026-04-16 19:24 | 39.83504 | 139.35550 | 35216 ft | 448 kts | 38° |
| 2026-04-16 19:25 | 39.86973 | 139.40624 | 35216 ft | 448 kts | 38° |
| 2026-04-16 19:25 | 39.91108 | 139.46680 | 35219 ft | 447 kts | 38° |
| 2026-04-16 19:26 | 39.95232 | 139.52737 | 35220 ft | 446 kts | 38° |
| 2026-04-16 19:26 | 39.99345 | 139.58787 | 35221 ft | 446 kts | 38° |
| 2026-04-16 19:27 | 40.03424 | 139.64798 | 35224 ft | 445 kts | 38° |
| 2026-04-16 19:27 | 40.07522 | 139.70849 | 35218 ft | 444 kts | 38° |
| 2026-04-16 19:28 | 40.11603 | 139.76885 | 35224 ft | 443 kts | 38° |
| 2026-04-16 19:28 | 40.15681 | 139.82929 | 35224 ft | 442 kts | 38° |
| 2026-04-16 19:29 | 40.19744 | 139.88964 | 35225 ft | 442 kts | 39° |
| 2026-04-16 19:29 | 40.23797 | 139.94997 | 35228 ft | 441 kts | 39° |
| 2026-04-16 19:30 | 40.27841 | 140.01029 | 35229 ft | 440 kts | 39° |
| 2026-04-16 19:30 | 40.31879 | 140.07061 | 35229 ft | 440 kts | 39° |
| 2026-04-16 19:31 | 40.35915 | 140.13103 | 35229 ft | 440 kts | 39° |
| 2026-04-16 19:31 | 40.39936 | 140.19134 | 35230 ft | 439 kts | 39° |
| 2026-04-16 19:32 | 40.43949 | 140.25163 | 35238 ft | 438 kts | 39° |
| 2026-04-16 19:32 | 40.47959 | 140.31204 | 35239 ft | 439 kts | 39° |
| 2026-04-16 19:33 | 40.51939 | 140.37211 | 35228 ft | 439 kts | 39° |
| 2026-04-16 19:33 | 40.55950 | 140.43275 | 35223 ft | 439 kts | 39° |
| 2026-04-16 19:34 | 40.59950 | 140.49335 | 35213 ft | 439 kts | 39° |
| 2026-04-16 19:34 | 40.63947 | 140.55402 | 35203 ft | 438 kts | 39° |
| 2026-04-16 19:35 | 40.67934 | 140.61467 | 35186 ft | 438 kts | 39° |
| 2026-04-16 19:35 | 40.72113 | 140.67187 | 35191 ft | 426 kts | 30° |
| 2026-04-16 19:36 | 40.76874 | 140.71549 | 35189 ft | 410 kts | 18° |
| 2026-04-16 19:36 | 40.82003 | 140.74517 | 35197 ft | 398 kts | 10° |
| 2026-04-16 19:37 | 40.87198 | 140.77074 | 35205 ft | 398 kts | 10° |
| 2026-04-16 19:37 | 40.92354 | 140.79618 | 35213 ft | 398 kts | 10° |
| 2026-04-16 19:38 | 40.97539 | 140.82175 | 35220 ft | 398 kts | 10° |
| 2026-04-16 19:38 | 41.02721 | 140.84737 | 35229 ft | 397 kts | 10° |
| 2026-04-16 19:39 | 41.07907 | 140.87304 | 35235 ft | 397 kts | 10° |
| 2026-04-16 19:39 | 41.13086 | 140.89873 | 35232 ft | 397 kts | 10° |
| 2026-04-16 19:40 | 41.18261 | 140.92446 | 35237 ft | 397 kts | 10° |
| 2026-04-16 19:40 | 41.23435 | 140.95022 | 35234 ft | 397 kts | 10° |
| 2026-04-16 19:41 | 41.28601 | 140.97596 | 35234 ft | 396 kts | 10° |
| 2026-04-16 19:41 | 41.33781 | 141.00170 | 35234 ft | 397 kts | 9° |
| 2026-04-16 19:42 | 41.38928 | 141.02683 | 35234 ft | 397 kts | 9° |
| 2026-04-16 19:42 | 41.44104 | 141.05239 | 35235 ft | 397 kts | 10° |
| 2026-04-16 19:43 | 41.49292 | 141.07795 | 35231 ft | 397 kts | 10° |
| 2026-04-16 19:43 | 41.54478 | 141.10360 | 35224 ft | 397 kts | 10° |
| 2026-04-16 19:44 | 41.59636 | 141.12911 | 35221 ft | 397 kts | 10° |
| 2026-04-16 19:44 | 41.64821 | 141.15484 | 35222 ft | 397 kts | 10° |
| 2026-04-16 19:45 | 41.69991 | 141.18054 | 35219 ft | 397 kts | 10° |
| 2026-04-16 19:45 | 41.75154 | 141.20675 | 35221 ft | 397 kts | 10° |
| 2026-04-16 19:46 | 41.80319 | 141.23285 | 35223 ft | 396 kts | 10° |
| 2026-04-16 19:46 | 41.85481 | 141.25905 | 35228 ft | 396 kts | 10° |
| 2026-04-16 19:47 | 41.90638 | 141.28526 | 35230 ft | 396 kts | 10° |
| 2026-04-16 19:47 | 41.95794 | 141.31148 | 35231 ft | 396 kts | 10° |
| 2026-04-16 19:48 | 42.00958 | 141.33741 | 35234 ft | 395 kts | 9° |
| 2026-04-16 19:48 | 42.06083 | 141.36291 | 35232 ft | 396 kts | 10° |
| 2026-04-16 19:49 | 42.11239 | 141.38881 | 35236 ft | 395 kts | 10° |
| 2026-04-16 19:49 | 42.16397 | 141.41463 | 35236 ft | 395 kts | 10° |